Latest Weather Observations for Wilsons Promontory

IDV60801

Issued at 11:35 am EST Tuesday 2 September 2014 (issued every 30 minutes, with the page automatically refreshed every 10 minutes)

About weather observations | Map of weather stations | Latest weather observations for VIC | Other Formats
Station Details ID: 085096 Name: WILSONS PROMONTORY LIGHTHOUSE Lat: -39.13 Lon: 146.42 Height: 95.0 m
Data from the previous 72 hours. | See also: Recent months at Wilsons Promontory
Date/Time
EST
Temp
°C
App
Temp
°C
Dew
Point
Rel
Hum
%
Delta-T
°C
Wind Press
QNH
hPa
Press
MSL
hPa
Rain
since 9 am
mm
Dir
 
Spd
km/h
Gust
km/h
Spd
kts
Gust
kts
02/11:30am 11.3 4.1 6.0 70 2.5 S 33 46 18 25 1016.7 - 0.2
02/11:00am 11.0 3.1 6.2 72 2.3 S 37 46 20 25 1016.6 - 0.2
02/10:43am 10.7 4.2 6.3 74 2.1 S 30 48 16 26 1016.4 - 0.2
02/10:30am 10.2 6.0 5.6 73 2.1 SW 17 20 9 11 1016.6 - 0.2
02/10:00am 10.0 5.4 6.7 80 1.6 S 20 28 11 15 1016.6 - 0.2
02/09:30am 9.9 5.9 6.8 81 1.5 S 17 32 9 17 1015.8 - 0.2
02/09:00am 10.3 5.4 6.8 79 1.7 S 22 30 12 16 1015.7 1015.8 4.6
02/08:52am 10.0 4.6 6.3 78 1.7 S 24 35 13 19 1015.6 - 4.6
02/08:30am 10.4 2.2 6.5 77 1.8 SE 39 44 21 24 1015.3 - 4.4
02/08:23am 10.8 2.7 7.1 78 1.8 SE 39 43 21 23 1015.0 - 4.4
02/08:00am 10.8 6.8 6.6 75 2.0 S 17 26 9 14 1014.6 - 3.8
02/07:30am 11.0 7.4 6.6 74 2.1 SSW 15 24 8 13 1014.2 - 3.8
02/07:00am 10.6 5.9 6.0 73 2.1 S 20 32 11 17 1013.5 - 3.8
02/06:30am 10.6 5.5 6.2 74 2.1 S 22 33 12 18 1013.0 - 3.8
02/06:00am 10.6 5.1 5.8 72 2.2 S 24 41 13 22 1012.5 1012.6 3.8
02/05:30am 10.9 6.2 5.2 68 2.6 WSW 19 32 10 17 1012.1 - 3.8
02/05:00am 10.9 5.6 7.0 77 1.9 SW 24 41 13 22 1011.5 - 3.8
02/04:30am 10.9 4.8 6.6 75 2.0 SW 28 43 15 23 1011.2 - 3.8
02/04:18am 10.9 4.7 6.3 73 2.2 SW 28 46 15 25 1011.1 - 3.8
02/04:00am 11.0 6.3 6.2 72 2.3 SW 20 41 11 22 1010.9 - 3.8
02/03:48am 11.0 4.4 6.2 72 2.3 SW 30 48 16 26 1010.6 - 3.8
02/03:30am 11.0 5.2 6.4 73 2.2 SW 26 44 14 24 1010.2 - 3.8
02/03:21am 11.1 7.1 6.6 74 2.1 ENE 17 61 9 33 1010.0 - 3.8
02/03:00am 11.1 2.8 6.3 72 2.3 SW 39 63 21 34 1009.8 1009.9 3.8
02/02:55am 11.3 4.2 6.4 72 2.3 SSW 33 65 18 35 1009.8 - 3.8
02/02:30am 11.3 -0.1 6.6 73 2.2 SW 56 74 30 40 1009.7 - 3.8
02/02:13am 11.4 0.4 6.9 74 2.2 SW 54 72 29 39 1009.7 - 3.8
02/02:00am 11.4 -1.4 6.5 72 2.3 SW 63 76 34 41 1009.5 - 3.8
02/01:30am 11.4 -1.8 6.5 72 2.3 SW 65 74 35 40 1009.3 - 3.8
02/01:16am 11.3 -0.2 6.2 71 2.4 WSW 56 76 30 41 1009.1 - 3.8
02/01:00am 11.3 -2.1 7.0 75 2.1 SW 67 78 36 42 1008.8 - 3.8
02/12:30am 11.5 -0.4 7.0 74 2.2 WSW 59 70 32 38 1009.0 - 3.8
02/12:17am 11.5 -1.9 7.0 74 2.2 SW 67 72 36 39 1008.7 - 3.8
02/12:11am 11.5 2.1 7.0 74 2.2 WSW 46 65 25 35 1009.0 - 3.8
02/12:00am 11.5 1.7 7.0 74 2.2 WSW 48 65 26 35 1009.3 1009.4 3.8
 
Date/Time
EST
Temp
°C
App
Temp
°C
Dew
Point
Rel
Hum
%
Delta-T
°C
Wind Press
QNH
hPa
Press
MSL
hPa
Rain
since 9 am
mm
Dir
 
Spd
km/h
Gust
km/h
Spd
kts
Gust
kts
01/11:30pm 11.5 1.6 6.6 72 2.3 WSW 48 70 26 38 1008.9 - 3.8
01/11:05pm 11.6 2.5 6.9 73 2.3 W 44 63 24 34 1009.1 - 3.8
01/11:00pm 11.7 2.2 6.8 72 2.3 W 46 63 25 34 1009.1 - 3.8
01/10:37pm 11.7 2.7 6.6 71 2.4 W 43 61 23 33 1009.0 - 3.8
01/10:30pm 11.8 2.3 6.7 71 2.4 W 46 61 25 33 1008.8 - 3.8
01/10:12pm 11.7 2.6 7.0 73 2.3 W 44 63 24 34 1008.5 - 3.8
01/10:00pm 11.7 2.7 7.2 74 2.2 W 44 59 24 32 1008.7 - 3.8
01/09:30pm 11.9 1.9 7.8 76 2.0 WSW 50 65 27 35 1008.7 - 3.8
01/09:00pm 11.9 1.2 8.0 77 1.9 WSW 54 63 29 34 1008.4 1008.5 3.8
01/08:30pm 11.8 3.0 8.1 78 1.8 WSW 44 59 24 32 1008.1 - 3.8
01/08:00pm 11.8 3.6 8.3 79 1.7 WSW 41 56 22 30 1008.3 - 3.8
01/07:30pm 11.8 5.2 8.5 80 1.6 W 33 50 18 27 1008.1 - 3.8
01/07:21pm 11.7 5.3 8.7 82 1.5 W 32 50 17 27 1008.1 - 3.8
01/07:00pm 11.5 4.2 8.7 83 1.4 W 37 52 20 28 1007.8 - 3.8
01/06:51pm 11.7 5.4 8.9 83 1.4 W 32 50 17 27 1007.6 - 3.8
01/06:30pm 11.8 5.3 9.0 83 1.4 W 33 46 18 25 1007.3 - 3.8
01/06:14pm 11.8 5.0 9.2 84 1.3 W 35 54 19 29 1006.8 - 3.8
01/06:00pm 11.8 5.4 9.5 86 1.2 W 33 46 18 25 1006.8 1006.8 3.8
01/05:47pm 11.8 5.1 9.7 87 1.1 WSW 35 54 19 29 1006.8 - 3.8
01/05:30pm 11.7 4.3 9.8 88 1.0 WSW 39 52 21 28 1006.3 - 3.8
01/05:25pm 11.7 4.7 9.9 89 0.9 WSW 37 48 20 26 1006.3 - 3.8
01/05:03pm 11.7 5.4 9.8 88 1.0 WNW 33 52 18 28 1006.4 - 2.8
01/05:00pm 11.7 5.0 9.8 88 1.0 WNW 35 52 19 28 1006.3 - 2.4
01/04:46pm 11.6 5.2 9.5 87 1.1 WNW 33 52 18 28 1006.3 - 2.0
01/04:30pm 11.8 5.5 9.7 87 1.1 WNW 33 50 18 27 1006.2 - 1.0
01/04:11pm 11.4 5.9 9.3 87 1.1 WNW 28 56 15 30 1005.9 - 1.0
01/04:00pm 11.5 6.5 9.4 87 1.1 WNW 26 43 14 23 1006.1 - 1.0
01/03:30pm 11.5 5.3 9.2 86 1.2 WNW 32 63 17 34 1006.1 - 0.8
01/03:00pm 11.8 5.6 9.4 85 1.2 WNW 32 69 17 37 1006.1 1006.1 0.6
01/02:57pm 11.8 5.6 9.4 85 1.2 W 32 69 17 37 1005.9 - 0.6
01/02:30pm 11.9 6.8 9.3 84 1.3 NW 26 48 14 26 1006.4 - 0.4
01/02:25pm 11.8 6.3 9.2 84 1.3 WNW 28 54 15 29 1006.2 - 0.4
01/02:00pm 12.3 9.0 9.5 83 1.4 NW 17 32 9 17 1006.2 - 0.4
01/01:30pm 12.4 8.4 8.9 79 1.8 WNW 20 61 11 33 1006.0 - 0.2
01/01:05pm 12.5 6.7 7.8 73 2.3 WNW 28 57 15 31 1006.2 - 0.0
01/01:00pm 12.9 9.2 7.8 71 2.5 WNW 17 48 9 26 1006.7 - 0.0
01/12:30pm 14.4 9.0 7.9 65 3.2 W 26 44 14 24 1006.4 - 0.0
01/12:20pm 14.5 8.6 7.3 62 3.6 W 28 57 15 31 1006.3 - 0.0
01/12:00pm 15.1 9.4 6.9 58 4.0 W 26 44 14 24 1006.6 1006.6 0.0
01/11:30am 15.3 10.4 7.1 58 4.1 W 22 43 12 23 1007.1 - 0.0
01/11:00am 15.3 12.2 7.1 58 4.1 NW 13 26 7 14 1007.7 - 0.0
01/10:30am 15.4 12.5 6.7 56 4.3 SSW 11 32 6 17 1007.1 - 0.0
01/10:00am 16.3 12.1 5.9 50 5.1 WSW 17 30 9 16 1007.6 - 0.0
01/09:30am 17.0 14.2 5.3 46 5.6 W 9 15 5 8 1007.5 - 0.0
01/09:00am 16.5 14.0 6.6 52 4.9 NNE 9 17 5 9 1007.3 1007.3 0.0
01/08:30am 18.1 14.2 3.6 38 6.8 NNW 13 32 7 17 1007.2 - 0.0
01/08:00am 16.8 12.5 5.4 47 5.5 N 17 24 9 13 1007.2 - 0.0
01/07:31am 17.9 11.2 3.4 38 6.8 N 28 72 15 39 1007.0 - 0.0
01/07:30am 17.1 11.4 5.1 45 5.8 N 24 57 13 31 1007.2 - 0.0
01/07:00am 15.5 9.8 6.8 56 4.3 NNE 26 35 14 19 1006.8 - 0.0
01/06:30am 15.0 8.8 7.8 62 3.6 NNE 30 39 16 21 1006.8 - 0.0
01/06:00am 16.4 11.3 6.0 50 5.1 NNE 22 30 12 16 1007.2 1007.2 0.0
01/05:30am 18.3 14.0 3.0 36 7.1 N 15 24 8 13 1007.7 - 0.0
01/05:00am 18.6 14.0 3.6 37 7.1 N 17 28 9 15 1007.8 - 0.0
01/04:30am 18.8 13.6 3.4 36 7.2 N 20 37 11 20 1007.6 - 0.0
01/04:00am 18.5 13.5 3.6 37 7.0 N 19 35 10 19 1007.6 - 0.0
01/03:30am 17.4 12.1 5.0 44 6.0 NNE 22 30 12 16 1007.8 - 0.0
01/03:00am 18.9 13.2 3.1 35 7.4 N 22 39 12 21 1008.2 1008.3 0.0
01/02:30am 18.6 13.0 3.6 37 7.1 N 22 32 12 17 1008.6 - 0.0
01/02:00am 17.8 12.8 4.7 42 6.3 N 20 30 11 16 1009.0 - 0.0
01/01:30am 18.0 12.6 4.6 41 6.4 N 22 37 12 20 1009.3 - 0.0
01/01:00am 17.4 12.6 5.7 46 5.7 N 20 28 11 15 1009.4 - 0.0
01/12:30am 14.0 9.8 9.6 75 2.3 N 22 32 12 17 1009.7 - 0.0
01/12:00am 13.6 8.1 9.1 74 2.3 N 28 32 15 17 1009.8 1009.9 0.0
 
Date/Time
EST
Temp
°C
App
Temp
°C
Dew
Point
Rel
Hum
%
Delta-T
°C
Wind Press
QNH
hPa
Press
MSL
hPa
Rain
since 9 am
mm
Dir
 
Spd
km/h
Gust
km/h
Spd
kts
Gust
kts
31/11:30pm 14.3 9.6 9.1 71 2.7 NNE 24 30 13 16 1010.5 - 0.0
31/11:00pm 15.1 10.2 8.6 65 3.3 N 24 30 13 16 1011.0 - 0.0
31/10:30pm 15.8 11.2 8.1 60 3.9 N 22 30 12 16 1011.5 - 0.0
31/10:00pm 16.1 11.5 8.1 59 4.1 N 22 28 12 15 1011.9 - 0.0
31/09:30pm 14.7 9.9 8.9 68 3.0 N 24 30 13 16 1012.2 - 0.0
31/09:00pm 15.7 10.7 8.0 60 3.9 N 24 28 13 15 1012.5 1012.6 0.0
31/08:30pm 14.3 9.6 9.1 71 2.7 N 24 30 13 16 1012.7 - 0.0
31/08:00pm 14.8 9.9 8.3 65 3.3 N 24 28 13 15 1012.9 - 0.0
31/07:30pm 16.0 10.0 7.2 56 4.4 N 28 37 15 20 1012.9 - 0.0
31/07:00pm 15.7 9.7 7.2 57 4.2 N 28 35 15 19 1013.1 - 0.0
31/06:30pm 15.0 9.9 7.8 62 3.6 NNE 24 32 13 17 1013.2 - 0.0
31/06:00pm 15.0 10.3 7.8 62 3.6 NNE 22 32 12 17 1013.2 1013.3 0.0
31/05:30pm 15.1 10.8 7.9 62 3.6 NNE 20 28 11 15 1013.3 - 0.0
31/05:00pm 14.9 9.6 8.4 65 3.3 NNE 26 32 14 17 1013.3 - 0.0
31/04:30pm 14.5 9.2 8.5 67 3.0 NE 26 30 14 16 1013.3 - 0.0
31/04:00pm 14.9 9.7 8.8 67 3.1 NE 26 32 14 17 1013.5 - 0.0
31/03:30pm 14.9 9.7 8.8 67 3.1 NE 26 32 14 17 1013.7 - 0.0
31/03:00pm 15.4 10.9 8.4 63 3.6 NNE 22 28 12 15 1014.1 1014.2 0.0
31/02:30pm 14.8 10.7 10.2 74 2.4 NNE 22 24 12 13 1014.3 - 0.0
31/02:00pm 14.2 10.3 10.8 80 1.8 NNE 22 26 12 14 1014.6 - 0.0
31/01:30pm 14.1 9.6 9.9 76 2.2 NNE 24 30 13 16 1014.9 - 0.0
31/01:00pm 14.9 11.3 10.5 75 2.3 NNE 20 24 11 13 1015.3 - 0.0
31/12:30pm 14.3 11.5 11.3 82 1.6 NNE 17 20 9 11 1015.8 - 0.0
31/12:00pm 13.8 10.6 11.3 85 1.3 NNE 19 22 10 12 1016.3 1016.4 0.0
31/11:30am 13.6 10.4 11.1 85 1.3 NNE 19 26 10 14 1016.7 - 0.0
31/11:00am 13.3 10.0 11.0 86 1.2 NNE 19 20 10 11 1017.2 - 0.0
31/10:30am 13.4 10.5 11.1 86 1.2 NNE 17 20 9 11 1017.6 - 0.0
31/10:00am 13.5 10.2 11.0 85 1.3 NNE 19 24 10 13 1018.0 - 0.0
31/09:30am 14.2 11.1 11.5 84 1.4 NNE 19 24 10 13 1018.3 - 0.0
31/09:00am 13.8 10.6 11.3 85 1.3 NNE 19 24 10 13 1018.5 1018.6 0.0
31/08:30am 13.5 10.3 11.2 86 1.2 NNE 19 24 10 13 1018.5 - 0.0
31/08:00am 12.9 9.4 10.8 87 1.1 N 20 24 11 13 1018.6 - 0.0
31/07:30am 12.2 8.5 10.1 87 1.1 N 20 24 11 13 1018.7 - 0.0
31/07:00am 11.5 7.2 9.4 87 1.1 NNE 22 28 12 15 1018.6 - 0.0
31/06:30am 11.4 6.7 9.1 86 1.2 NNE 24 30 13 16 1018.5 - 0.0
31/06:00am 11.7 7.0 9.1 84 1.3 NNE 24 30 13 16 1018.3 1018.4 0.0
31/05:30am 11.8 7.0 9.0 83 1.4 NNE 24 32 13 17 1018.2 - 0.0
31/05:00am 11.9 6.3 8.9 82 1.5 N 28 41 15 22 1018.2 - 0.0
31/04:30am 12.0 6.6 9.4 84 1.3 N 28 35 15 19 1018.3 - 0.0
31/04:00am 12.0 6.2 9.6 85 1.2 NNE 30 37 16 20 1018.4 - 0.0
31/03:30am 12.0 6.7 9.7 86 1.2 NNE 28 35 15 19 1018.7 - 0.0
31/03:00am 12.1 6.4 9.8 86 1.2 N 30 41 16 22 1018.9 1019.0 0.0
31/02:30am 12.1 6.8 9.7 85 1.2 N 28 43 15 23 1019.2 - 0.0
31/02:00am 12.2 6.9 9.8 85 1.2 NNE 28 39 15 21 1019.5 - 0.0
31/01:30am 12.3 7.4 9.9 85 1.2 NNE 26 37 14 20 1019.9 - 0.0
31/01:00am 12.3 6.6 9.7 84 1.3 NNE 30 39 16 21 1020.2 - 0.0
31/12:30am 12.4 6.3 9.6 83 1.4 NNE 32 44 17 24 1020.3 - 0.0
31/12:00am 12.5 6.7 9.5 82 1.5 NNE 30 39 16 21 1020.6 1020.7 0.0
 
Date/Time
EST
Temp
°C
App
Temp
°C
Dew
Point
Rel
Hum
%
Delta-T
°C
Wind Press
QNH
hPa
Press
MSL
hPa
Rain
since 9 am
mm
Dir
 
Spd
km/h
Gust
km/h
Spd
kts
Gust
kts
30/11:37pm 12.5 6.7 9.3 81 1.6 NNE 30 48 16 26 1020.9 - 0.0
30/11:30pm 12.5 6.3 9.3 81 1.6 NNE 32 46 17 25 1021.1 - 0.0
30/11:00pm 12.5 6.2 9.1 80 1.7 NNE 32 46 17 25 1021.6 - 0.0
30/10:30pm 12.5 6.2 9.1 80 1.7 NNE 32 43 17 23 1021.8 - 0.0
30/10:06pm 12.5 6.6 9.1 80 1.7 NNE 30 50 16 27 1022.0 - 0.0
30/10:00pm 12.5 7.0 9.1 80 1.7 NNE 28 39 15 21 1022.1 - 0.0
30/09:30pm 12.5 6.6 9.1 80 1.7 NNE 30 46 16 25 1022.3 - 0.0
30/09:00pm 12.4 5.9 9.1 80 1.7 NNE 33 44 18 24 1022.2 1022.3 0.0
30/08:30pm 12.4 5.6 9.1 80 1.7 NNE 35 50 19 27 1022.0 - 0.0
30/08:00pm 12.3 5.8 9.0 80 1.7 NNE 33 46 18 25 1022.0 - 0.0
30/07:30pm 12.2 6.0 9.2 82 1.5 NNE 32 44 17 24 1022.2 - 0.0
30/07:00pm 12.1 6.2 9.1 82 1.5 NNE 30 43 16 23 1022.3 - 0.0
30/06:30pm 12.0 6.1 9.0 82 1.5 NNE 30 43 16 23 1022.6 - 0.0
30/06:00pm 12.0 6.5 9.0 82 1.5 NNE 28 37 15 20 1022.7 1022.8 0.0
30/05:30pm 12.1 6.1 8.8 80 1.7 NNE 30 39 16 21 1022.6 - 0.0
30/05:00pm 12.3 6.2 8.4 77 1.9 NNE 30 39 16 21 1022.6 - 0.0
30/04:30pm 12.6 6.2 8.5 76 2.0 NNE 32 44 17 24 1022.7 - 0.0
30/04:00pm 12.9 6.3 8.6 75 2.2 NNE 33 41 18 22 1022.8 - 0.0
30/03:30pm 13.2 6.8 8.5 73 2.4 NNE 32 39 17 21 1022.9 - 0.0
30/03:00pm 13.3 6.2 8.2 71 2.5 NNE 35 43 19 23 1023.0 1023.1 0.0
30/02:30pm 13.4 6.0 8.3 71 2.6 NNE 37 46 20 25 1023.1 - 0.0
30/02:00pm 13.6 5.8 8.4 71 2.6 NNE 39 48 21 26 1023.1 - 0.0
30/01:30pm 13.6 5.5 8.7 72 2.5 NNE 41 54 22 29 1023.3 - 0.0
30/01:00pm 13.6 5.6 9.1 74 2.3 NNE 41 52 22 28 1023.6 - 0.0
30/12:30pm 13.7 5.7 9.0 73 2.4 NNE 41 56 22 30 1024.0 - 0.0
30/12:00pm 13.7 5.6 8.7 72 2.5 NNE 41 54 22 29 1024.5 1024.6 0.0

Other Formats:

Comma delimited format used in spreadsheet applications
http://www.bom.gov.au/fwo/IDV60801/IDV60801.94893.axf

JavaScript Object Notation format (JSON) in row-major order
http://www.bom.gov.au/fwo/IDV60801/IDV60801.94893.json